createdAt,value
2022-12-03T00:00:23.983Z,38.23
2022-12-03T00:02:52.176Z,45.57
2022-12-03T00:05:20.280Z,46.43
2022-12-03T00:07:48.274Z,40.57
2022-12-03T00:10:18.659Z,45.60
2022-12-03T00:12:46.724Z,40.87
2022-12-03T00:15:14.970Z,49.77
2022-12-03T00:17:42.911Z,39.00
2022-12-03T00:20:19.095Z,47.90
2022-12-03T00:22:48.102Z,45.17
2022-12-03T00:25:16.263Z,45.20
2022-12-03T00:27:45.607Z,47.50
2022-12-03T00:30:15.415Z,47.17
2022-12-03T00:32:43.610Z,45.40
2022-12-03T00:35:11.555Z,45.53
2022-12-03T00:37:39.580Z,46.10
2022-12-03T00:40:08.947Z,43.80
2022-12-03T00:42:36.914Z,41.10
2022-12-03T00:45:07.489Z,43.43
2022-12-03T00:47:35.472Z,41.30
2022-12-03T00:50:03.424Z,41.70
2022-12-03T00:52:31.527Z,42.30
2022-12-03T00:54:59.518Z,40.13
2022-12-03T00:57:27.471Z,43.53
2022-12-03T00:59:55.434Z,44.93
2022-12-03T01:02:24.753Z,43.57
2022-12-03T01:04:53.046Z,43.87
2022-12-03T01:07:21.331Z,40.20
2022-12-03T01:09:49.280Z,41.37
2022-12-03T01:12:17.182Z,43.50
2022-12-03T01:14:45.347Z,43.50
2022-12-03T01:17:13.390Z,39.03
2022-12-03T01:19:48.058Z,50.27
2022-12-03T01:22:16.455Z,43.60
2022-12-03T01:24:44.442Z,42.70
2022-12-03T01:27:12.391Z,40.73
2022-12-03T01:29:40.326Z,38.47
2022-12-03T01:32:19.702Z,41.57
2022-12-03T01:34:51.859Z,36.77
2022-12-03T01:37:22.402Z,36.50
2022-12-03T01:39:50.572Z,41.00
2022-12-03T01:42:20.788Z,37.30
2022-12-03T01:44:50.023Z,43.80
2022-12-03T01:47:19.859Z,36.40
2022-12-03T01:49:52.077Z,41.80
2022-12-03T01:52:25.155Z,40.77
2022-12-03T01:54:56.523Z,38.17
2022-12-03T01:57:27.575Z,40.43
2022-12-03T01:59:58.216Z,37.60
2022-12-03T02:02:28.447Z,42.50
2022-12-03T02:04:58.396Z,34.70
2022-12-03T02:07:28.366Z,35.80
2022-12-03T02:09:58.261Z,38.87
2022-12-03T02:12:31.129Z,42.10
2022-12-03T02:14:59.647Z,39.80
2022-12-03T02:17:28.182Z,45.37
2022-12-03T02:19:58.289Z,38.60
2022-12-03T02:22:38.617Z,38.40
2022-12-03T02:25:17.531Z,37.77
2022-12-03T02:27:46.620Z,41.37
2022-12-03T02:30:17.381Z,41.77
2022-12-03T02:32:45.750Z,40.83
2022-12-03T02:35:18.311Z,43.07
2022-12-03T02:37:48.526Z,39.30
2022-12-03T02:40:21.239Z,43.30
2022-12-03T02:42:50.438Z,44.43
2022-12-03T02:45:21.427Z,40.30
2022-12-03T02:47:52.862Z,40.63
2022-12-03T02:50:27.056Z,39.50
2022-12-03T02:52:57.741Z,38.47
2022-12-03T02:55:34.950Z,36.60
2022-12-03T02:58:05.922Z,46.67
2022-12-03T03:00:34.465Z,41.00
2022-12-03T03:03:04.208Z,39.70
2022-12-03T03:05:32.828Z,42.03
2022-12-03T03:08:01.764Z,43.97
2022-12-03T03:10:31.670Z,42.00
2022-12-03T03:13:00.097Z,42.10
2022-12-03T03:15:28.123Z,42.20
2022-12-03T03:17:56.202Z,44.27
2022-12-03T03:20:24.196Z,43.77
2022-12-03T03:22:52.252Z,40.50
2022-12-03T03:25:22.468Z,44.87
2022-12-03T03:27:51.808Z,41.33
2022-12-03T03:30:19.971Z,42.80
2022-12-03T03:32:47.969Z,44.47
2022-12-03T03:35:17.962Z,37.40
2022-12-03T03:37:45.988Z,40.70
2022-12-03T03:40:14.293Z,37.47
2022-12-03T03:42:42.587Z,39.23
2022-12-03T03:45:12.312Z,41.90
2022-12-03T03:47:40.707Z,35.93
2022-12-03T03:50:11.559Z,36.23
2022-12-03T03:52:41.294Z,34.80
2022-12-03T03:55:11.863Z,40.60
2022-12-03T03:57:40.783Z,38.73
2022-12-03T04:00:10.104Z,42.80
2022-12-03T04:02:39.436Z,38.27
2022-12-03T04:05:08.790Z,41.10
2022-12-03T04:07:36.788Z,39.27
2022-12-03T04:10:25.651Z,37.27
2022-12-03T04:12:57.118Z,38.13
2022-12-03T04:15:25.852Z,42.83
2022-12-03T04:18:09.054Z,33.70
2022-12-03T04:20:37.035Z,35.20
2022-12-03T04:23:04.187Z,39.10
2022-12-03T04:25:49.511Z,38.03
2022-12-03T04:28:35.042Z,39.83
2022-12-03T04:31:23.728Z,38.73
2022-12-03T04:34:12.642Z,34.40
2022-12-03T04:36:40.720Z,34.53
2022-12-03T04:39:08.637Z,35.37
2022-12-03T04:41:36.583Z,32.07
2022-12-03T04:44:21.854Z,36.27
2022-12-03T04:46:49.743Z,33.17
2022-12-03T04:49:18.987Z,33.23
2022-12-03T04:51:46.979Z,30.20
2022-12-03T04:54:15.133Z,36.50
2022-12-03T04:56:43.046Z,31.30
2022-12-03T04:59:15.963Z,34.57
2022-12-03T05:01:45.982Z,35.00
2022-12-03T05:04:14.698Z,33.10
2022-12-03T05:06:44.076Z,32.50
2022-12-03T05:09:12.395Z,32.57
2022-12-03T05:11:40.576Z,31.13
2022-12-03T05:14:09.232Z,35.00
2022-12-03T05:16:37.658Z,33.83
2022-12-03T05:19:07.003Z,32.17
2022-12-03T05:21:35.084Z,32.93
2022-12-03T05:24:05.131Z,32.37
2022-12-03T05:26:33.083Z,28.50
2022-12-03T05:29:02.502Z,34.57
2022-12-03T05:31:30.523Z,36.53
2022-12-03T05:33:58.487Z,32.07
2022-12-03T05:36:26.453Z,31.97
2022-12-03T05:38:54.433Z,32.57
2022-12-03T05:41:41.240Z,39.10
2022-12-03T05:44:09.444Z,38.93
2022-12-03T05:46:37.462Z,32.70
2022-12-03T05:49:05.489Z,39.70
2022-12-03T05:51:33.462Z,48.53
2022-12-03T05:54:01.411Z,35.07
2022-12-03T05:56:30.675Z,41.80
2022-12-03T05:58:58.602Z,32.27
2022-12-03T06:01:26.515Z,32.57
2022-12-03T06:03:54.492Z,32.33
2022-12-03T06:06:22.538Z,31.33
2022-12-03T06:08:50.989Z,36.57
2022-12-03T06:11:18.973Z,34.40
2022-12-03T06:13:48.234Z,31.33
2022-12-03T06:16:16.236Z,36.30
2022-12-03T06:18:44.184Z,34.63
2022-12-03T06:21:12.095Z,31.90
2022-12-03T06:23:44.542Z,29.43
2022-12-03T06:26:12.854Z,32.50
2022-12-03T06:28:40.879Z,30.43
2022-12-03T06:31:10.321Z,35.47
2022-12-03T06:33:38.268Z,32.20
2022-12-03T06:36:07.026Z,30.03
2022-12-03T06:38:34.995Z,28.07
2022-12-03T06:41:02.963Z,30.60
2022-12-03T06:43:31.132Z,28.33
2022-12-03T06:45:59.145Z,27.60
2022-12-03T06:48:28.387Z,31.23
2022-12-03T06:50:56.263Z,31.80
2022-12-03T06:53:26.131Z,32.80
2022-12-03T06:55:54.058Z,35.57
2022-12-03T06:58:22.055Z,28.53
2022-12-03T07:00:49.939Z,33.30
2022-12-03T07:03:17.995Z,31.57
2022-12-03T07:05:47.313Z,31.10
2022-12-03T07:08:15.284Z,27.97
2022-12-03T07:10:43.275Z,32.40
2022-12-03T07:13:11.204Z,28.47
2022-12-03T07:15:39.136Z,25.90
2022-12-03T07:18:07.286Z,26.97
2022-12-03T07:20:35.181Z,28.87
2022-12-03T07:23:04.590Z,25.50
2022-12-03T07:25:32.545Z,25.50
2022-12-03T07:28:00.630Z,23.70
2022-12-03T07:30:28.791Z,26.80
2022-12-03T07:32:58.187Z,23.37
2022-12-03T07:35:26.072Z,22.63
2022-12-03T07:37:53.971Z,22.47
2022-12-03T07:40:23.336Z,23.47
2022-12-03T07:42:51.307Z,25.53
2022-12-03T07:45:19.270Z,19.10
2022-12-03T07:47:47.239Z,17.53
2022-12-03T07:50:15.327Z,19.73
2022-12-03T07:52:43.314Z,19.30
2022-12-03T07:55:13.311Z,19.50
2022-12-03T07:57:42.557Z,20.30
2022-12-03T08:00:12.802Z,23.10
2022-12-03T08:02:40.900Z,19.40
2022-12-03T08:05:09.156Z,23.00
2022-12-03T08:07:37.192Z,21.93
2022-12-03T08:10:05.871Z,19.07
2022-12-03T08:12:41.051Z,39.00
2022-12-03T08:15:17.050Z,38.70
2022-12-03T08:17:46.579Z,20.03
2022-12-03T08:20:17.353Z,21.00
2022-12-03T08:22:47.543Z,19.77
2022-12-03T08:25:21.418Z,19.50
2022-12-03T08:27:49.379Z,19.60
2022-12-03T08:30:19.866Z,21.07
2022-12-03T08:32:48.771Z,19.97
2022-12-03T08:35:23.557Z,15.00
2022-12-03T08:37:58.243Z,20.17
2022-12-03T08:40:34.507Z,21.07
2022-12-03T08:43:01.791Z,17.80
2022-12-03T08:45:41.741Z,16.27
2022-12-03T08:48:33.663Z,16.63
2022-12-03T08:51:05.832Z,15.10
2022-12-03T08:53:36.082Z,14.10
2022-12-03T08:56:14.122Z,23.30
2022-12-03T08:58:44.001Z,20.47
2022-12-03T09:01:33.598Z,15.93
2022-12-03T09:04:24.891Z,13.67
2022-12-03T09:06:53.985Z,13.67
2022-12-03T09:09:22.715Z,12.97
2022-12-03T09:11:50.954Z,11.47
2022-12-03T09:14:21.215Z,12.20
2022-12-03T09:16:51.953Z,10.37
2022-12-03T09:19:20.018Z,12.83
2022-12-03T09:21:47.988Z,13.13
2022-12-03T09:24:15.909Z,11.80
2022-12-03T09:26:43.879Z,12.17
2022-12-03T09:29:12.607Z,14.57
2022-12-03T09:31:41.211Z,12.43
2022-12-03T09:34:10.991Z,14.77
2022-12-03T09:36:39.192Z,13.60
2022-12-03T09:39:07.139Z,12.67
2022-12-03T09:41:35.222Z,9.90
2022-12-03T09:44:04.863Z,13.70
2022-12-03T09:46:35.275Z,15.03
2022-12-03T09:49:03.585Z,13.70
2022-12-03T09:51:36.567Z,14.27
2022-12-03T09:54:07.568Z,14.30
2022-12-03T09:56:38.930Z,13.60
2022-12-03T09:59:13.639Z,18.37
2022-12-03T10:01:41.817Z,16.53
2022-12-03T10:04:10.333Z,22.37
2022-12-03T10:06:45.584Z,25.43
2022-12-03T10:09:17.730Z,17.87
2022-12-03T10:11:45.840Z,13.73
2022-12-03T10:14:15.233Z,13.93
2022-12-03T10:16:43.670Z,12.43
2022-12-03T10:19:20.200Z,10.40
2022-12-03T10:21:49.565Z,13.80
2022-12-03T10:24:23.205Z,11.40
2022-12-03T10:26:53.353Z,11.20
2022-12-03T10:29:25.811Z,10.83
2022-12-03T10:31:59.268Z,10.87
2022-12-03T10:34:31.454Z,11.13
2022-12-03T10:37:16.540Z,12.60
2022-12-03T10:39:56.216Z,14.47
2022-12-03T10:42:25.680Z,14.10
2022-12-03T10:45:09.178Z,13.00
2022-12-03T10:47:37.162Z,13.43
2022-12-03T10:50:10.207Z,12.30
2022-12-03T10:52:39.550Z,12.60
2022-12-03T10:55:10.379Z,14.67
2022-12-03T10:57:43.761Z,13.17
2022-12-03T11:00:17.269Z,13.43
2022-12-03T11:02:46.775Z,13.40
2022-12-03T11:05:19.392Z,13.93
2022-12-03T11:07:49.003Z,13.30
2022-12-03T11:10:19.364Z,16.07
2022-12-03T11:13:20.777Z,13.70
2022-12-03T11:15:48.915Z,13.90
2022-12-03T11:18:50.196Z,15.07
2022-12-03T11:21:20.748Z,15.83
2022-12-03T11:24:19.770Z,14.97
2022-12-03T11:27:20.670Z,14.73
2022-12-03T11:30:02.445Z,17.53
2022-12-03T11:33:09.573Z,15.23
2022-12-03T11:36:12.401Z,17.20
2022-12-03T11:38:52.663Z,17.93
2022-12-03T11:41:31.303Z,13.97
2022-12-03T11:44:30.823Z,15.33
2022-12-03T11:47:02.114Z,11.17
2022-12-03T11:49:35.349Z,15.33
2022-12-03T11:52:13.253Z,14.70
2022-12-03T11:54:42.274Z,16.60
2022-12-03T11:57:28.366Z,14.43
2022-12-03T12:00:01.550Z,13.83
2022-12-03T12:02:40.312Z,16.47
2022-12-03T12:05:28.030Z,16.20
2022-12-03T12:07:58.403Z,15.03
2022-12-03T12:10:47.943Z,25.03
2022-12-03T12:13:55.651Z,16.00
2022-12-03T12:16:50.529Z,24.00
2022-12-03T12:19:33.209Z,15.13
2022-12-03T12:22:18.855Z,12.83
2022-12-03T12:24:52.833Z,15.47
2022-12-03T12:27:22.879Z,16.33
2022-12-03T12:29:56.146Z,13.10
2022-12-03T12:32:31.493Z,14.47
2022-12-03T12:35:03.518Z,15.23
2022-12-03T12:37:36.234Z,12.67
2022-12-03T12:40:13.324Z,14.03
2022-12-03T12:42:49.637Z,12.10
2022-12-03T12:45:20.335Z,13.67
2022-12-03T12:48:03.127Z,16.30
2022-12-03T12:50:32.058Z,14.57
2022-12-03T12:53:03.815Z,19.73
2022-12-03T12:55:31.817Z,16.70
2022-12-03T12:58:05.418Z,15.60
2022-12-03T13:00:33.361Z,16.80
2022-12-03T13:03:04.668Z,17.13
2022-12-03T13:05:39.415Z,15.53
2022-12-03T13:08:22.535Z,15.83
2022-12-03T13:10:51.311Z,16.37
2022-12-03T13:13:31.991Z,14.77
2022-12-03T13:16:03.763Z,16.27
2022-12-03T13:18:46.084Z,14.33
2022-12-03T13:21:21.173Z,15.80
2022-12-03T13:23:50.171Z,13.53
2022-12-03T13:29:16.047Z,17.83
2022-12-03T13:31:50.026Z,22.87
2022-12-03T13:34:22.782Z,15.10
2022-12-03T13:36:57.565Z,13.10
2022-12-03T13:39:30.505Z,14.73
2022-12-03T13:42:17.836Z,16.27
2022-12-03T13:44:48.747Z,22.47
2022-12-03T13:47:21.865Z,26.57
2022-12-03T13:49:56.590Z,21.10
2022-12-03T13:52:26.952Z,18.50
2022-12-03T13:54:57.001Z,17.87
2022-12-03T13:57:25.005Z,16.70
2022-12-03T13:59:53.199Z,18.50
2022-12-03T14:02:21.558Z,23.70
2022-12-03T14:04:49.557Z,42.40
2022-12-03T14:07:18.915Z,21.07
2022-12-03T14:09:46.835Z,20.50
2022-12-03T14:12:26.688Z,19.30
2022-12-03T14:14:55.280Z,20.03
2022-12-03T14:17:23.210Z,21.40
2022-12-03T14:19:51.217Z,27.23
2022-12-03T14:22:23.439Z,35.60
2022-12-03T14:24:51.405Z,19.83
2022-12-03T14:27:19.456Z,18.70
2022-12-03T14:29:47.722Z,24.07
2022-12-03T14:32:15.775Z,22.67
2022-12-03T14:34:44.057Z,27.17
2022-12-03T14:37:12.073Z,24.73
2022-12-03T14:39:41.424Z,18.37
2022-12-03T14:42:15.058Z,22.53
2022-12-03T14:44:44.874Z,26.30
2022-12-03T14:47:13.395Z,25.83
2022-12-03T14:49:41.598Z,22.20
2022-12-03T14:52:12.425Z,20.47
2022-12-03T14:54:43.178Z,23.73
2022-12-03T14:57:12.664Z,24.80
2022-12-03T14:59:41.822Z,18.53
2022-12-03T15:02:10.494Z,26.83
2022-12-03T15:04:38.750Z,22.40
2022-12-03T15:07:07.102Z,20.50
2022-12-03T15:09:35.654Z,19.70
2022-12-03T15:12:05.944Z,24.03
2022-12-03T15:14:34.005Z,21.33
2022-12-03T15:17:02.115Z,22.80
2022-12-03T15:19:30.160Z,21.10
2022-12-03T15:21:58.282Z,21.93
2022-12-03T15:24:26.268Z,24.87
2022-12-03T15:26:54.214Z,24.90
2022-12-03T15:29:24.695Z,20.17
2022-12-03T15:31:52.709Z,16.50
2022-12-03T15:34:22.783Z,15.93
2022-12-03T15:36:51.455Z,13.80
2022-12-03T15:39:19.411Z,15.87
2022-12-03T15:41:48.214Z,13.07
2022-12-03T15:44:16.269Z,11.47
2022-12-03T15:46:45.671Z,10.93
2022-12-03T15:49:13.660Z,14.47
2022-12-03T15:51:41.649Z,14.60
2022-12-03T15:54:12.097Z,16.00
2022-12-03T15:56:40.077Z,14.93
2022-12-03T15:59:07.948Z,14.23
2022-12-03T16:01:35.958Z,12.83
2022-12-03T16:04:05.556Z,14.00
2022-12-03T16:06:33.951Z,12.90
2022-12-03T16:09:02.011Z,15.47
2022-12-03T16:11:30.098Z,16.20
2022-12-03T16:13:58.151Z,12.70
2022-12-03T16:16:26.475Z,15.97
2022-12-03T16:18:54.849Z,12.90
2022-12-03T16:21:27.038Z,13.47
2022-12-03T16:23:55.909Z,15.40
2022-12-03T16:26:24.512Z,14.50
2022-12-03T16:28:53.178Z,16.43
2022-12-03T16:31:21.647Z,13.90
2022-12-03T16:33:49.972Z,16.77
2022-12-03T16:36:18.248Z,14.20
2022-12-03T16:38:47.930Z,12.30
2022-12-03T16:41:16.017Z,14.90
2022-12-03T16:43:47.232Z,15.30
2022-12-03T16:46:25.783Z,13.43
2022-12-03T16:48:55.340Z,15.47
2022-12-03T16:51:27.145Z,13.33
2022-12-03T16:53:56.845Z,14.50
2022-12-03T16:56:25.131Z,13.80
2022-12-03T16:58:53.263Z,12.90
2022-12-03T17:01:23.449Z,12.90
2022-12-03T17:03:51.642Z,12.17
2022-12-03T17:06:20.559Z,13.60
2022-12-03T17:08:49.842Z,14.27
2022-12-03T17:11:19.946Z,13.43
2022-12-03T17:13:48.185Z,12.70
2022-12-03T17:16:16.138Z,14.27
2022-12-03T17:18:44.153Z,17.97
2022-12-03T17:21:12.120Z,21.53
2022-12-03T17:23:40.089Z,16.13
2022-12-03T17:26:08.097Z,18.87
2022-12-03T17:28:37.492Z,14.13
2022-12-03T17:31:05.649Z,13.07
2022-12-03T17:33:34.031Z,15.80
2022-12-03T17:36:02.657Z,16.33
2022-12-03T17:38:35.614Z,15.33
2022-12-03T17:41:07.361Z,18.53
2022-12-03T17:43:35.300Z,15.67
2022-12-03T17:46:06.553Z,14.30
2022-12-03T17:48:50.185Z,15.87
2022-12-03T17:51:19.314Z,16.40
2022-12-03T17:53:47.489Z,15.77
2022-12-03T17:56:15.406Z,15.20
2022-12-03T17:58:43.375Z,15.93
2022-12-03T18:01:12.864Z,13.73
2022-12-03T18:03:40.880Z,16.60
2022-12-03T18:06:09.271Z,14.83
2022-12-03T18:08:37.164Z,16.27
2022-12-03T18:11:05.450Z,15.13
2022-12-03T18:13:33.453Z,15.03
2022-12-03T18:16:01.547Z,10.97
2022-12-03T18:18:30.903Z,13.97
2022-12-03T18:21:02.036Z,14.30
2022-12-03T18:23:30.077Z,16.67
2022-12-03T18:25:58.418Z,16.70
2022-12-03T18:28:26.453Z,15.67
2022-12-03T18:30:54.891Z,17.53
2022-12-03T18:33:23.535Z,17.33
2022-12-03T18:35:56.844Z,18.80
2022-12-03T18:38:29.673Z,20.17
2022-12-03T18:40:58.783Z,14.40
2022-12-03T18:43:28.040Z,20.73
2022-12-03T18:45:56.060Z,21.90
2022-12-03T18:48:24.053Z,22.03
2022-12-03T18:50:51.989Z,18.43
2022-12-03T18:53:21.587Z,19.33
2022-12-03T18:55:49.895Z,17.40
2022-12-03T18:58:19.315Z,22.20
2022-12-03T19:00:47.468Z,20.20
2022-12-03T19:03:15.698Z,22.00
2022-12-03T19:05:44.411Z,18.90
2022-12-03T19:08:15.255Z,21.60
2022-12-03T19:10:45.012Z,22.00
2022-12-03T19:13:13.490Z,19.53
2022-12-03T19:15:42.392Z,21.90
2022-12-03T19:18:10.314Z,22.27
2022-12-03T19:20:41.817Z,21.77
2022-12-03T19:23:10.575Z,21.30
2022-12-03T19:25:38.928Z,22.43
2022-12-03T19:28:09.037Z,20.30
2022-12-03T19:30:37.735Z,21.50
2022-12-03T19:33:05.776Z,19.93
2022-12-03T19:35:33.727Z,22.20
2022-12-03T19:38:01.781Z,20.30
2022-12-03T19:40:32.102Z,20.97
2022-12-03T19:43:01.400Z,19.10
2022-12-03T19:45:30.891Z,17.17
2022-12-03T19:48:00.380Z,21.83
2022-12-03T19:50:28.878Z,19.77
2022-12-03T19:52:57.260Z,18.90
2022-12-03T19:55:25.281Z,21.20
2022-12-03T19:57:53.694Z,18.87
2022-12-03T20:00:22.637Z,19.90
2022-12-03T20:02:52.042Z,17.57
2022-12-03T20:05:20.069Z,18.60
2022-12-03T20:07:48.103Z,20.30
2022-12-03T20:10:16.221Z,17.40
2022-12-03T20:12:44.149Z,18.33
2022-12-03T20:15:13.594Z,14.43
2022-12-03T20:17:41.493Z,16.27
2022-12-03T20:20:11.977Z,15.17
2022-12-03T20:22:39.963Z,11.00
2022-12-03T20:25:08.793Z,13.67
2022-12-03T20:27:37.424Z,11.13
2022-12-03T20:30:06.857Z,13.50
2022-12-03T20:32:40.551Z,12.90
2022-12-03T20:35:13.019Z,12.43
2022-12-03T20:37:40.950Z,10.33
2022-12-03T20:40:10.046Z,15.50
2022-12-03T20:42:37.982Z,13.30
2022-12-03T20:45:07.150Z,14.33
2022-12-03T20:47:35.100Z,18.27
2022-12-03T20:50:03.086Z,17.37
2022-12-03T20:52:32.366Z,17.60
2022-12-03T20:55:00.694Z,17.43
2022-12-03T20:57:28.855Z,19.57
2022-12-03T20:59:56.959Z,18.93
2022-12-03T21:02:24.962Z,17.13
2022-12-03T21:04:54.359Z,15.63
2022-12-03T21:07:22.244Z,18.33
2022-12-03T21:09:51.876Z,15.23
2022-12-03T21:12:19.988Z,19.00
2022-12-03T21:14:48.242Z,31.53
2022-12-03T21:17:16.219Z,16.53
2022-12-03T21:19:44.252Z,15.07
2022-12-03T21:22:12.244Z,16.50
2022-12-03T21:24:42.691Z,18.10
2022-12-03T21:27:14.597Z,16.60
2022-12-03T21:29:46.351Z,15.43
2022-12-03T21:32:14.339Z,12.00
2022-12-03T21:34:42.893Z,17.30
2022-12-03T21:37:10.895Z,14.90
2022-12-03T21:39:38.939Z,15.50
2022-12-03T21:42:25.971Z,14.57
2022-12-03T21:44:56.202Z,16.70
2022-12-03T21:47:24.153Z,19.10
2022-12-03T21:49:52.227Z,15.33
2022-12-03T21:52:20.356Z,16.53
2022-12-03T21:54:48.286Z,17.27
2022-12-03T21:57:16.278Z,20.33
2022-12-03T21:59:44.224Z,20.17
2022-12-03T22:02:13.785Z,17.87
2022-12-03T22:04:41.799Z,21.07
2022-12-03T22:07:09.971Z,21.90
2022-12-03T22:09:38.381Z,18.00
2022-12-03T22:12:06.994Z,19.20
2022-12-03T22:14:34.917Z,15.93
2022-12-03T22:17:02.969Z,18.10
2022-12-03T22:19:32.571Z,16.03
2022-12-03T22:22:00.480Z,16.20
2022-12-03T22:24:28.493Z,16.77
2022-12-03T22:26:56.520Z,15.70
2022-12-03T22:29:24.490Z,16.23
2022-12-03T22:31:52.636Z,16.00
2022-12-03T22:34:20.565Z,15.93
2022-12-03T22:36:49.931Z,20.07
2022-12-03T22:39:17.971Z,14.77
2022-12-03T22:41:45.950Z,14.27
2022-12-03T22:44:14.349Z,14.30
2022-12-03T22:46:42.409Z,16.03
2022-12-03T22:49:10.410Z,16.97
2022-12-03T22:51:38.345Z,14.20
2022-12-03T22:54:07.682Z,19.67
2022-12-03T22:56:36.067Z,16.60
2022-12-03T22:59:04.142Z,13.40
2022-12-03T23:01:34.367Z,13.40
2022-12-03T23:04:03.613Z,12.40
2022-12-03T23:06:32.767Z,12.07
2022-12-03T23:09:00.739Z,11.53
2022-12-03T23:11:30.126Z,13.67
2022-12-03T23:13:58.933Z,14.30
2022-12-03T23:16:29.710Z,13.23
2022-12-03T23:18:59.522Z,13.33
2022-12-03T23:21:30.697Z,14.90
2022-12-03T23:23:59.637Z,13.57
2022-12-03T23:26:27.946Z,11.70
2022-12-03T23:28:57.624Z,13.80
2022-12-03T23:31:27.375Z,11.00
2022-12-03T23:33:56.523Z,10.77
2022-12-03T23:36:26.234Z,13.37
2022-12-03T23:38:54.891Z,15.37
2022-12-03T23:41:24.528Z,11.77
2022-12-03T23:43:52.687Z,12.33
2022-12-03T23:46:24.475Z,9.70
2022-12-03T23:48:53.282Z,11.33
2022-12-03T23:51:24.246Z,11.93
2022-12-03T23:53:53.330Z,9.63
2022-12-03T23:56:23.243Z,9.87
2022-12-03T23:58:51.622Z,10.43
